createdAt,value
2022-12-08T00:00:57.097Z,100.00
2022-12-08T00:03:07.731Z,100.00
2022-12-08T00:05:28.185Z,100.00
2022-12-08T00:07:48.491Z,100.00
2022-12-08T00:09:56.712Z,100.00
2022-12-08T00:12:06.845Z,100.00
2022-12-08T00:14:15.379Z,100.00
2022-12-08T00:16:23.217Z,100.00
2022-12-08T00:18:37.055Z,100.00
2022-12-08T00:20:45.220Z,100.00
2022-12-08T00:22:52.936Z,100.00
2022-12-08T00:25:00.947Z,100.00
2022-12-08T00:27:09.215Z,100.00
2022-12-08T00:29:17.802Z,100.00
2022-12-08T00:31:25.703Z,100.00
2022-12-08T00:33:36.317Z,100.00
2022-12-08T00:35:45.111Z,100.00
2022-12-08T00:37:57.514Z,100.00
2022-12-08T00:40:10.305Z,100.00
2022-12-08T00:42:18.207Z,100.00
2022-12-08T00:44:26.609Z,100.00
2022-12-08T00:46:34.364Z,100.00
2022-12-08T00:48:44.887Z,100.00
2022-12-08T00:50:53.000Z,100.00
2022-12-08T00:53:00.837Z,100.00
2022-12-08T00:55:09.326Z,100.00
2022-12-08T00:57:17.264Z,100.00
2022-12-08T00:59:25.284Z,100.00
2022-12-08T01:01:34.461Z,100.00
2022-12-08T01:03:46.204Z,100.00
2022-12-08T01:05:54.206Z,100.00
2022-12-08T01:08:02.016Z,100.00
2022-12-08T01:10:11.436Z,100.00
2022-12-08T01:12:19.582Z,100.00
2022-12-08T01:14:29.182Z,100.00
2022-12-08T01:16:41.619Z,100.00
2022-12-08T01:18:53.475Z,100.00
2022-12-08T01:21:05.897Z,100.00
2022-12-08T01:23:14.108Z,100.00
2022-12-08T01:25:23.025Z,100.00
2022-12-08T01:27:30.922Z,100.00
2022-12-08T01:29:38.752Z,100.00
2022-12-08T01:31:47.018Z,100.00
2022-12-08T01:33:58.768Z,100.00
2022-12-08T01:36:07.429Z,100.00
2022-12-08T01:38:15.206Z,100.00
2022-12-08T01:40:23.044Z,100.00
2022-12-08T01:42:32.496Z,100.00
2022-12-08T01:45:02.819Z,100.00
2022-12-08T01:47:11.594Z,100.00
2022-12-08T01:49:25.248Z,100.00
2022-12-08T01:51:39.103Z,100.00
2022-12-08T01:53:47.689Z,100.00
2022-12-08T01:56:00.109Z,100.00
2022-12-08T01:58:14.356Z,100.00
2022-12-08T02:00:26.538Z,100.00
2022-12-08T02:02:41.678Z,100.00
2022-12-08T02:04:52.135Z,100.00
2022-12-08T02:07:06.389Z,100.00
2022-12-08T02:09:15.940Z,100.00
2022-12-08T02:11:24.154Z,100.00
2022-12-08T02:13:32.842Z,100.00
2022-12-08T02:15:52.902Z,100.00
2022-12-08T02:18:16.962Z,100.00
2022-12-08T02:20:52.948Z,100.00
2022-12-08T02:23:07.363Z,100.00
2022-12-08T02:25:23.463Z,100.00
2022-12-08T02:27:55.434Z,100.00
2022-12-08T02:30:21.463Z,100.00
2022-12-08T02:32:57.813Z,100.00
2022-12-08T02:35:14.913Z,100.00
2022-12-08T02:37:32.444Z,100.00
2022-12-08T02:39:48.398Z,100.00
2022-12-08T02:42:02.847Z,100.00
2022-12-08T02:44:18.152Z,100.00
2022-12-08T02:46:31.160Z,100.00
2022-12-08T02:48:39.502Z,100.00
2022-12-08T02:50:49.992Z,100.00
2022-12-08T02:52:58.498Z,100.00
2022-12-08T02:55:11.420Z,100.00
2022-12-08T02:57:33.994Z,100.00
2022-12-08T02:59:55.755Z,100.00
2022-12-08T03:02:25.357Z,100.00
2022-12-08T03:04:45.151Z,100.00
2022-12-08T03:07:06.116Z,100.00
2022-12-08T03:09:21.025Z,100.00
2022-12-08T03:11:38.334Z,100.00
2022-12-08T03:13:50.307Z,100.00
2022-12-08T03:15:59.226Z,100.00
2022-12-08T03:18:11.211Z,100.00
2022-12-08T03:20:23.565Z,100.00
2022-12-08T03:22:34.612Z,100.00
2022-12-08T03:24:44.964Z,100.00
2022-12-08T03:26:57.945Z,100.00
2022-12-08T03:29:06.010Z,100.00
2022-12-08T03:31:19.090Z,100.00
2022-12-08T03:33:30.451Z,100.00
2022-12-08T03:35:42.530Z,100.00
2022-12-08T03:37:53.379Z,100.00
2022-12-08T03:40:02.801Z,100.00
2022-12-08T03:42:12.030Z,100.00
2022-12-08T03:44:19.905Z,100.00
2022-12-08T03:48:37.205Z,100.00
2022-12-08T03:50:44.892Z,100.00
2022-12-08T03:52:55.458Z,100.00
2022-12-08T03:55:03.780Z,100.00
2022-12-08T03:57:11.767Z,100.00
2022-12-08T03:59:19.701Z,100.00
2022-12-08T04:01:28.425Z,100.00
2022-12-08T04:03:36.313Z,100.00
2022-12-08T04:05:44.455Z,100.00
2022-12-08T04:07:52.778Z,100.00
2022-12-08T04:10:03.684Z,100.00
2022-12-08T04:12:13.449Z,100.00
2022-12-08T04:14:22.218Z,100.00
2022-12-08T04:16:30.446Z,100.00
2022-12-08T04:18:39.174Z,100.00
2022-12-08T04:20:48.237Z,100.00
2022-12-08T04:22:55.997Z,100.00
2022-12-08T04:25:07.148Z,100.00
2022-12-08T04:27:14.907Z,100.00
2022-12-08T04:29:23.209Z,100.00
2022-12-08T04:31:31.225Z,100.00
2022-12-08T04:33:39.655Z,100.00
2022-12-08T04:35:47.560Z,100.00
2022-12-08T04:37:55.340Z,100.00
2022-12-08T04:40:03.540Z,100.00
2022-12-08T04:42:14.223Z,100.00
2022-12-08T04:44:22.455Z,100.00
2022-12-08T04:46:30.303Z,100.00
2022-12-08T04:48:40.558Z,100.00
2022-12-08T04:50:49.422Z,100.00
2022-12-08T04:52:58.512Z,100.00
2022-12-08T04:55:08.267Z,100.00
2022-12-08T04:57:19.766Z,100.00
2022-12-08T04:59:28.665Z,100.00
2022-12-08T05:01:36.615Z,100.00
2022-12-08T05:03:44.598Z,100.00
2022-12-08T05:05:52.388Z,100.00
2022-12-08T05:08:00.560Z,100.00
2022-12-08T05:10:11.297Z,100.00
2022-12-08T05:12:21.823Z,100.00
2022-12-08T05:14:29.965Z,100.00
2022-12-08T05:16:37.742Z,100.00
2022-12-08T05:18:46.510Z,100.00
2022-12-08T05:20:54.336Z,100.00
2022-12-08T05:23:02.195Z,100.00
2022-12-08T05:25:11.118Z,100.00
2022-12-08T05:27:21.594Z,100.00
2022-12-08T05:29:30.060Z,100.00
2022-12-08T05:31:38.342Z,100.00
2022-12-08T05:33:46.472Z,100.00
2022-12-08T05:35:54.402Z,100.00
2022-12-08T05:38:03.494Z,100.00
2022-12-08T05:40:12.239Z,100.00
2022-12-08T05:42:24.939Z,100.00
2022-12-08T05:44:33.706Z,100.00
2022-12-08T05:46:42.488Z,100.00
2022-12-08T05:48:50.380Z,100.00
2022-12-08T05:50:59.004Z,100.00
2022-12-08T05:53:07.027Z,100.00
2022-12-08T05:55:15.229Z,100.00
2022-12-08T05:57:25.847Z,100.00
2022-12-08T05:59:33.567Z,100.00
2022-12-08T06:01:42.690Z,100.00
2022-12-08T06:03:50.925Z,100.00
2022-12-08T06:05:59.333Z,100.00
2022-12-08T06:08:07.406Z,100.00
2022-12-08T06:10:15.774Z,100.00
2022-12-08T06:12:26.160Z,100.00
2022-12-08T06:14:34.328Z,100.00
2022-12-08T06:16:43.445Z,100.00
2022-12-08T06:18:51.837Z,100.00
2022-12-08T06:21:05.432Z,100.00
2022-12-08T06:23:13.148Z,100.00
2022-12-08T06:25:21.168Z,100.00
2022-12-08T06:27:31.917Z,100.00
2022-12-08T06:29:39.876Z,100.00
2022-12-08T06:31:47.899Z,100.00
2022-12-08T06:33:58.038Z,100.00
2022-12-08T06:36:05.967Z,100.00
2022-12-08T06:38:14.293Z,100.00
2022-12-08T06:40:22.965Z,100.00
2022-12-08T06:42:48.188Z,100.00
2022-12-08T06:44:56.610Z,100.00
2022-12-08T06:47:04.446Z,100.00
2022-12-08T06:49:13.319Z,100.00
2022-12-08T06:51:23.664Z,100.00
2022-12-08T06:53:31.400Z,100.00
2022-12-08T06:55:58.723Z,100.00
2022-12-08T06:58:09.559Z,100.00
2022-12-08T07:00:18.956Z,100.00
2022-12-08T07:02:27.048Z,100.00
2022-12-08T07:04:34.839Z,100.00
2022-12-08T07:06:43.203Z,100.00
2022-12-08T07:08:50.955Z,100.00
2022-12-08T07:10:58.800Z,100.00
2022-12-08T07:13:09.656Z,100.00
2022-12-08T07:15:17.826Z,100.00
2022-12-08T07:17:25.612Z,100.00
2022-12-08T07:19:34.516Z,100.00
2022-12-08T07:21:42.417Z,100.00
2022-12-08T07:23:57.307Z,100.00
2022-12-08T07:26:07.874Z,100.00
2022-12-08T07:28:18.360Z,100.00
2022-12-08T07:30:26.168Z,100.00
2022-12-08T07:32:34.889Z,100.00
2022-12-08T07:34:43.714Z,100.00
2022-12-08T07:36:51.773Z,100.00
2022-12-08T07:39:00.013Z,100.00
2022-12-08T07:41:08.277Z,100.00
2022-12-08T07:43:19.176Z,100.00
2022-12-08T07:45:31.485Z,100.00
2022-12-08T07:47:40.407Z,100.00
2022-12-08T07:49:48.514Z,100.00
2022-12-08T07:51:56.307Z,100.00
2022-12-08T07:54:04.115Z,100.00
2022-12-08T07:56:13.201Z,100.00
2022-12-08T07:58:23.780Z,100.00
2022-12-08T08:00:31.579Z,100.00
2022-12-08T08:02:39.545Z,100.00
2022-12-08T08:04:48.634Z,100.00
2022-12-08T08:06:58.711Z,100.00
2022-12-08T08:09:08.966Z,100.00
2022-12-08T08:11:21.430Z,100.00
2022-12-08T08:13:33.491Z,100.00
2022-12-08T08:15:41.632Z,100.00
2022-12-08T08:17:54.052Z,100.00
2022-12-08T08:20:02.925Z,100.00
2022-12-08T08:22:12.394Z,100.00
2022-12-08T08:24:21.708Z,100.00
2022-12-08T08:26:29.619Z,100.00
2022-12-08T08:28:40.061Z,100.00
2022-12-08T08:30:49.354Z,100.00
2022-12-08T08:32:57.068Z,100.00
2022-12-08T08:35:06.587Z,100.00
2022-12-08T08:37:14.575Z,100.00
2022-12-08T08:39:22.437Z,100.00
2022-12-08T08:41:30.418Z,100.00
2022-12-08T08:43:41.264Z,100.00
2022-12-08T08:45:49.593Z,100.00
2022-12-08T08:47:57.921Z,100.00
2022-12-08T08:50:06.664Z,100.00
2022-12-08T08:52:16.204Z,100.00
2022-12-08T08:54:25.230Z,100.00
2022-12-08T08:56:33.241Z,100.00
2022-12-08T08:58:45.336Z,100.00
2022-12-08T09:00:54.999Z,100.00
2022-12-08T09:03:04.473Z,100.00
2022-12-08T09:05:13.663Z,100.00
2022-12-08T09:07:22.728Z,100.00
2022-12-08T09:09:31.332Z,100.00
2022-12-08T09:11:39.685Z,100.00
2022-12-08T09:13:51.525Z,100.00
2022-12-08T09:16:00.837Z,100.00
2022-12-08T09:18:09.733Z,94.76
2022-12-08T09:20:17.628Z,84.57
2022-12-08T09:22:25.587Z,81.22
2022-12-08T09:24:33.515Z,78.61
2022-12-08T09:26:41.827Z,77.50
2022-12-08T09:28:52.721Z,74.67
2022-12-08T09:31:00.798Z,80.18
2022-12-08T09:33:10.433Z,78.37
2022-12-08T09:35:18.496Z,71.51
2022-12-08T09:37:26.354Z,71.11
2022-12-08T09:39:34.962Z,76.64
2022-12-08T09:41:50.148Z,77.09
2022-12-08T09:44:12.144Z,77.62
2022-12-08T09:46:22.235Z,78.97
2022-12-08T09:48:37.437Z,82.39
2022-12-08T09:50:52.759Z,83.43
2022-12-08T09:53:08.795Z,90.17
2022-12-08T09:55:25.572Z,94.42
2022-12-08T09:57:33.773Z,95.71
2022-12-08T09:59:50.686Z,98.95
2022-12-08T10:01:59.691Z,100.00
2022-12-08T10:04:17.140Z,100.00
2022-12-08T10:06:34.029Z,100.00
2022-12-08T10:08:51.116Z,100.00
2022-12-08T10:11:07.306Z,100.00
2022-12-08T10:13:23.933Z,100.00
2022-12-08T10:15:53.842Z,100.00
2022-12-08T10:18:06.168Z,100.00
2022-12-08T10:20:18.866Z,100.00
2022-12-08T10:22:28.592Z,100.00
2022-12-08T10:24:40.820Z,100.00
2022-12-08T10:26:50.007Z,100.00
2022-12-08T10:29:03.229Z,100.00
2022-12-08T10:31:19.233Z,100.00
2022-12-08T10:33:30.283Z,100.00
2022-12-08T10:35:52.712Z,100.00
2022-12-08T10:38:02.664Z,100.00
2022-12-08T10:40:15.947Z,100.00
2022-12-08T10:42:26.250Z,100.00
2022-12-08T10:44:37.974Z,100.00
2022-12-08T10:46:50.913Z,100.00
2022-12-08T10:49:16.438Z,100.00
2022-12-08T10:51:33.735Z,100.00
2022-12-08T10:53:49.825Z,100.00
2022-12-08T10:56:10.671Z,100.00
2022-12-08T10:58:30.324Z,100.00
2022-12-08T11:00:42.644Z,100.00
2022-12-08T11:03:01.005Z,100.00
2022-12-08T11:05:11.449Z,100.00
2022-12-08T11:07:25.784Z,100.00
2022-12-08T11:09:49.029Z,100.00
2022-12-08T11:11:59.945Z,100.00
2022-12-08T11:14:10.934Z,100.00
2022-12-08T11:16:21.083Z,100.00
2022-12-08T11:18:33.968Z,100.00
2022-12-08T11:20:43.757Z,100.00
2022-12-08T11:22:56.526Z,100.00
2022-12-08T11:25:13.511Z,100.00
2022-12-08T11:27:21.539Z,100.00
2022-12-08T11:29:30.788Z,100.00
2022-12-08T11:31:44.347Z,100.00
2022-12-08T11:33:56.315Z,100.00
2022-12-08T11:36:13.246Z,100.00
2022-12-08T11:38:24.400Z,100.00
2022-12-08T11:40:37.368Z,100.00
2022-12-08T11:42:57.999Z,100.00
2022-12-08T11:45:13.377Z,100.00
2022-12-08T11:47:27.711Z,100.00
2022-12-08T11:49:41.178Z,100.00
2022-12-08T11:51:55.966Z,99.86
2022-12-08T11:54:15.538Z,100.00
2022-12-08T11:56:28.289Z,99.92
2022-12-08T11:58:42.633Z,100.00
2022-12-08T12:00:51.263Z,99.54
2022-12-08T12:03:05.764Z,97.58
2022-12-08T12:06:05.381Z,97.26
2022-12-08T12:08:12.545Z,94.92
2022-12-08T12:10:41.018Z,92.51
2022-12-08T12:13:02.163Z,94.49
2022-12-08T12:15:37.295Z,92.91
2022-12-08T12:17:51.032Z,93.54
2022-12-08T12:20:03.013Z,92.23
2022-12-08T12:22:20.435Z,90.75
2022-12-08T12:24:36.293Z,88.69
2022-12-08T12:26:58.684Z,87.75
2022-12-08T12:29:09.814Z,87.06
2022-12-08T12:31:21.049Z,87.83
2022-12-08T12:33:29.833Z,87.39
2022-12-08T12:35:41.690Z,84.95
2022-12-08T12:37:52.506Z,84.24
2022-12-08T12:40:05.254Z,86.00
2022-12-08T12:42:41.693Z,86.28
2022-12-08T12:44:49.568Z,87.12
2022-12-08T12:47:03.135Z,86.57
2022-12-08T12:49:51.430Z,85.69
2022-12-08T12:51:59.399Z,88.44
2022-12-08T12:54:29.475Z,84.79
2022-12-08T12:56:57.016Z,86.31
2022-12-08T12:59:55.831Z,86.90
2022-12-08T13:02:04.440Z,87.69
2022-12-08T13:04:13.445Z,86.70
2022-12-08T13:06:36.262Z,87.83
2022-12-08T13:08:53.613Z,88.18
2022-12-08T13:11:09.193Z,87.98
2022-12-08T13:13:21.428Z,88.51
2022-12-08T13:15:36.020Z,88.97
2022-12-08T13:17:49.311Z,89.17
2022-12-08T13:20:01.006Z,88.95
2022-12-08T13:22:38.903Z,90.88
2022-12-08T13:24:47.208Z,87.34
2022-12-08T13:27:54.515Z,86.87
2022-12-08T13:30:32.882Z,88.27
2022-12-08T13:35:29.816Z,83.50
2022-12-08T13:37:55.030Z,84.52
2022-12-08T13:40:08.565Z,84.82
2022-12-08T13:42:25.065Z,83.40
2022-12-08T13:47:33.529Z,81.84
2022-12-08T13:57:30.269Z,77.13
2022-12-08T13:59:48.182Z,78.64
2022-12-08T14:01:56.228Z,78.30
2022-12-08T14:04:34.111Z,78.74
2022-12-08T14:06:40.342Z,75.23
2022-12-08T14:09:06.933Z,77.95
2022-12-08T14:11:36.446Z,80.19
2022-12-08T14:13:45.150Z,77.69
2022-12-08T14:15:55.922Z,79.19
2022-12-08T14:18:05.063Z,78.12
2022-12-08T14:20:25.421Z,78.39
2022-12-08T14:22:37.670Z,79.99
2022-12-08T14:24:49.025Z,78.25
2022-12-08T14:26:59.001Z,79.65
2022-12-08T14:29:11.366Z,78.25
2022-12-08T14:31:22.273Z,78.96
2022-12-08T14:33:31.101Z,77.93
2022-12-08T14:35:41.859Z,75.93
2022-12-08T14:37:53.259Z,76.20
2022-12-08T14:40:05.508Z,77.41
2022-12-08T14:42:24.658Z,79.36
2022-12-08T14:44:36.089Z,80.13
2022-12-08T14:47:06.746Z,81.20
2022-12-08T14:49:36.787Z,81.37
2022-12-08T14:51:44.793Z,81.77
2022-12-08T14:53:59.109Z,81.34
2022-12-08T14:56:11.136Z,80.10
2022-12-08T14:58:24.996Z,80.42
2022-12-08T15:00:34.353Z,81.84
2022-12-08T15:02:48.905Z,81.21
2022-12-08T15:05:03.134Z,82.70
2022-12-08T15:07:16.769Z,82.15
2022-12-08T15:09:35.121Z,82.77
2022-12-08T15:11:45.129Z,84.60
2022-12-08T15:13:55.986Z,84.65
2022-12-08T15:16:06.462Z,86.22
2022-12-08T15:18:20.090Z,84.57
2022-12-08T15:20:39.864Z,84.15
2022-12-08T15:22:47.751Z,86.18
2022-12-08T15:24:55.597Z,86.84
2022-12-08T15:27:03.694Z,87.47
2022-12-08T15:29:21.014Z,89.17
2022-12-08T15:31:28.892Z,88.31
2022-12-08T15:33:39.584Z,89.40
2022-12-08T15:35:47.942Z,88.48
2022-12-08T15:37:56.938Z,87.92
2022-12-08T15:40:06.472Z,86.88
2022-12-08T15:42:16.063Z,87.30
2022-12-08T15:44:23.935Z,88.22
2022-12-08T15:46:34.541Z,89.67
2022-12-08T15:48:45.507Z,88.75
2022-12-08T15:50:53.713Z,90.13
2022-12-08T15:53:01.552Z,91.13
2022-12-08T15:55:09.924Z,91.23
2022-12-08T15:58:04.628Z,90.25
2022-12-08T15:59:53.078Z,90.37
2022-12-08T16:02:02.380Z,90.67
2022-12-08T16:09:25.097Z,90.20
2022-12-08T16:15:15.956Z,92.09
2022-12-08T16:16:43.583Z,92.35
2022-12-08T16:18:52.778Z,92.40
2022-12-08T16:23:43.165Z,91.90
2022-12-08T16:26:20.171Z,91.29
2022-12-08T16:28:52.817Z,91.21
2022-12-08T16:30:49.029Z,91.14
2022-12-08T16:32:57.170Z,92.00
2022-12-08T16:35:05.485Z,92.59
2022-12-08T16:37:19.473Z,92.08
2022-12-08T16:39:28.506Z,92.80
2022-12-08T16:41:48.800Z,93.90
2022-12-08T16:43:56.559Z,93.26
2022-12-08T16:46:04.924Z,94.49
2022-12-08T16:48:16.946Z,94.29
2022-12-08T16:50:26.810Z,94.96
2022-12-08T16:52:37.666Z,94.29
2022-12-08T16:54:45.450Z,95.35
2022-12-08T16:56:53.914Z,94.91
2022-12-08T16:59:02.099Z,93.85
2022-12-08T17:01:16.035Z,93.05
2022-12-08T17:03:26.172Z,93.31
2022-12-08T17:05:35.645Z,93.94
2022-12-08T17:07:47.310Z,93.94
2022-12-08T17:09:56.418Z,94.28
2022-12-08T17:12:04.616Z,93.16
2022-12-08T17:14:12.876Z,92.15
2022-12-08T17:16:22.432Z,93.00
2022-12-08T17:18:31.061Z,93.88
2022-12-08T17:20:39.306Z,93.66
2022-12-08T17:22:52.000Z,93.52
2022-12-08T17:24:59.732Z,92.29
2022-12-08T17:27:07.800Z,92.31
2022-12-08T17:29:15.512Z,91.94
2022-12-08T17:31:27.769Z,91.56
2022-12-08T17:33:37.871Z,92.46
2022-12-08T17:35:50.668Z,93.57
2022-12-08T17:38:01.404Z,93.48
2022-12-08T17:40:10.896Z,93.34
2022-12-08T17:42:19.076Z,94.67
2022-12-08T17:44:28.228Z,95.89
2022-12-08T17:46:41.617Z,95.45
2022-12-08T17:48:50.761Z,95.41
2022-12-08T17:51:02.088Z,96.37
2022-12-08T17:53:14.030Z,94.81
2022-12-08T17:55:22.376Z,95.99
2022-12-08T17:57:31.464Z,94.52
2022-12-08T17:59:40.547Z,94.94
2022-12-08T18:01:49.115Z,94.46
2022-12-08T18:03:57.244Z,94.24
2022-12-08T18:06:08.381Z,94.29
2022-12-08T18:08:18.931Z,94.78
2022-12-08T18:10:27.194Z,95.27
2022-12-08T18:12:35.401Z,94.32
2022-12-08T18:14:43.175Z,94.36
2022-12-08T18:16:52.598Z,94.02
2022-12-08T18:19:00.666Z,94.07
2022-12-08T18:21:10.184Z,94.77
2022-12-08T18:23:20.825Z,94.42
2022-12-08T18:25:28.610Z,94.48
2022-12-08T18:27:43.054Z,92.96
2022-12-08T18:29:52.661Z,92.72
2022-12-08T18:32:00.509Z,92.36
2022-12-08T18:34:08.693Z,93.07
2022-12-08T18:36:18.839Z,93.96
2022-12-08T18:38:30.376Z,94.21
2022-12-08T18:40:39.696Z,94.69
2022-12-08T18:42:47.703Z,93.59
2022-12-08T18:45:03.048Z,93.41
2022-12-08T18:47:14.558Z,93.44
2022-12-08T18:49:24.273Z,93.13
2022-12-08T18:51:34.020Z,94.15
2022-12-08T18:53:46.929Z,95.37
2022-12-08T18:55:54.912Z,96.01
2022-12-08T18:58:02.966Z,96.40
2022-12-08T19:00:16.652Z,95.79
2022-12-08T19:02:25.463Z,94.94
2022-12-08T19:04:38.544Z,95.71
2022-12-08T19:06:47.102Z,95.73
2022-12-08T19:08:57.713Z,95.91
2022-12-08T19:11:05.777Z,95.46
2022-12-08T19:13:13.573Z,95.08
2022-12-08T19:15:21.713Z,94.69
2022-12-08T19:17:29.950Z,94.33
2022-12-08T19:19:38.664Z,94.23
2022-12-08T19:21:49.986Z,95.00
2022-12-08T19:24:01.652Z,95.34
2022-12-08T19:26:12.117Z,96.05
2022-12-08T19:28:20.416Z,96.37
2022-12-08T19:30:29.606Z,97.16
2022-12-08T19:32:37.343Z,97.34
2022-12-08T19:34:46.674Z,97.96
2022-12-08T19:36:54.542Z,98.70
2022-12-08T19:39:17.728Z,97.16
2022-12-08T19:41:39.752Z,97.87
2022-12-08T19:44:00.078Z,98.41
2022-12-08T19:46:08.953Z,98.52
2022-12-08T19:48:16.892Z,99.08
2022-12-08T19:50:38.743Z,99.16
2022-12-08T19:52:47.402Z,99.72
2022-12-08T19:54:58.138Z,99.97
2022-12-08T19:57:05.995Z,100.00
2022-12-08T19:59:15.786Z,99.60
2022-12-08T20:01:25.151Z,98.22
2022-12-08T20:03:33.437Z,96.96
2022-12-08T20:05:43.673Z,96.40
2022-12-08T20:07:52.414Z,96.80
2022-12-08T20:10:04.577Z,97.12
2022-12-08T20:12:15.152Z,97.99
2022-12-08T20:14:24.224Z,99.07
2022-12-08T20:16:32.432Z,100.00
2022-12-08T20:18:40.811Z,100.00
2022-12-08T20:20:51.637Z,100.00
2022-12-08T20:22:59.389Z,100.00
2022-12-08T20:25:15.495Z,100.00
2022-12-08T20:27:27.517Z,100.00
2022-12-08T20:29:41.374Z,100.00
2022-12-08T20:31:50.196Z,100.00
2022-12-08T20:34:02.146Z,100.00
2022-12-08T20:36:11.006Z,100.00
2022-12-08T20:38:21.204Z,100.00
2022-12-08T20:40:33.567Z,100.00
2022-12-08T20:42:42.038Z,100.00
2022-12-08T20:44:52.881Z,100.00
2022-12-08T20:47:03.281Z,100.00
2022-12-08T20:49:11.416Z,100.00
2022-12-08T20:51:32.022Z,100.00
2022-12-08T20:53:42.769Z,100.00
2022-12-08T20:55:59.895Z,100.00
2022-12-08T20:58:09.018Z,100.00
2022-12-08T21:00:21.802Z,100.00
2022-12-08T21:02:30.279Z,100.00
2022-12-08T21:04:38.908Z,100.00
2022-12-08T21:06:47.507Z,100.00
2022-12-08T21:08:55.933Z,100.00
2022-12-08T21:11:08.821Z,100.00
2022-12-08T21:13:17.082Z,100.00
2022-12-08T21:15:26.299Z,100.00
2022-12-08T21:17:37.323Z,100.00
2022-12-08T21:19:49.364Z,100.00
2022-12-08T21:22:00.363Z,100.00
2022-12-08T21:24:11.256Z,100.00
2022-12-08T21:26:26.407Z,100.00
2022-12-08T21:28:35.587Z,100.00
2022-12-08T21:30:44.425Z,100.00
2022-12-08T21:32:52.672Z,100.00
2022-12-08T21:35:00.963Z,100.00
2022-12-08T21:37:09.436Z,100.00
2022-12-08T21:39:17.600Z,100.00
2022-12-08T21:41:40.867Z,100.00
2022-12-08T21:43:49.084Z,100.00
2022-12-08T21:45:58.295Z,100.00
2022-12-08T21:48:11.388Z,100.00
2022-12-08T21:50:21.221Z,100.00
2022-12-08T21:52:30.373Z,100.00
2022-12-08T21:54:39.598Z,100.00
2022-12-08T21:56:51.371Z,100.00
2022-12-08T21:59:00.327Z,100.00
2022-12-08T22:01:09.480Z,100.00
2022-12-08T22:03:18.572Z,100.00
2022-12-08T22:05:27.649Z,100.00
2022-12-08T22:07:37.114Z,100.00
2022-12-08T22:09:46.358Z,100.00
2022-12-08T22:11:57.252Z,100.00
2022-12-08T22:14:08.377Z,100.00
2022-12-08T22:16:20.894Z,100.00
2022-12-08T22:18:28.991Z,100.00
2022-12-08T22:20:42.295Z,100.00
2022-12-08T22:22:51.948Z,100.00
2022-12-08T22:24:59.927Z,100.00
2022-12-08T22:27:10.500Z,100.00
2022-12-08T22:29:18.709Z,100.00
2022-12-08T22:31:27.006Z,100.00
2022-12-08T22:33:35.304Z,100.00
2022-12-08T22:35:43.929Z,100.00
2022-12-08T22:37:52.581Z,100.00
2022-12-08T22:40:01.387Z,100.00
2022-12-08T22:42:12.199Z,100.00
2022-12-08T22:44:20.152Z,100.00
2022-12-08T22:46:29.898Z,100.00
2022-12-08T22:48:37.844Z,100.00
2022-12-08T22:50:46.310Z,100.00
2022-12-08T22:52:54.472Z,100.00
2022-12-08T22:55:02.216Z,100.00
2022-12-08T22:57:12.785Z,100.00
2022-12-08T22:59:21.932Z,100.00
2022-12-08T23:01:32.758Z,100.00
2022-12-08T23:03:46.191Z,100.00
2022-12-08T23:05:55.584Z,100.00
2022-12-08T23:08:18.036Z,100.00
2022-12-08T23:10:26.232Z,100.00
2022-12-08T23:12:36.975Z,100.00
2022-12-08T23:14:45.100Z,100.00
2022-12-08T23:16:53.378Z,100.00
2022-12-08T23:19:01.883Z,100.00
2022-12-08T23:21:11.636Z,100.00
2022-12-08T23:23:20.841Z,100.00
2022-12-08T23:25:29.996Z,100.00
2022-12-08T23:27:40.837Z,100.00
2022-12-08T23:29:49.859Z,100.00
2022-12-08T23:31:57.844Z,100.00
2022-12-08T23:34:06.547Z,100.00
2022-12-08T23:36:15.587Z,100.00
2022-12-08T23:38:23.492Z,100.00
2022-12-08T23:40:31.929Z,100.00
2022-12-08T23:42:42.532Z,100.00
2022-12-08T23:44:50.786Z,100.00
2022-12-08T23:46:58.764Z,100.00
2022-12-08T23:49:06.701Z,100.00
2022-12-08T23:51:16.058Z,100.00
2022-12-08T23:53:24.379Z,100.00
2022-12-08T23:55:32.251Z,100.00
2022-12-08T23:57:42.708Z,100.00
2022-12-08T23:59:51.188Z,100.00
